createdAt,value
2022-12-24T00:00:01.504Z,8.46
2022-12-24T00:02:29.567Z,8.50
2022-12-24T00:05:01.314Z,8.43
2022-12-24T00:07:29.611Z,8.42
2022-12-24T00:09:57.635Z,8.41
2022-12-24T00:12:25.767Z,8.36
2022-12-24T00:14:53.686Z,8.33
2022-12-24T00:17:21.610Z,8.35
2022-12-24T00:19:49.662Z,8.33
2022-12-24T00:22:19.084Z,8.30
2022-12-24T00:24:47.081Z,8.25
2022-12-24T00:27:15.042Z,8.26
2022-12-24T00:29:42.956Z,8.25
2022-12-24T00:32:10.955Z,8.21
2022-12-24T00:34:38.935Z,8.16
2022-12-24T00:37:08.063Z,8.16
2022-12-24T00:39:37.600Z,8.13
2022-12-24T00:42:05.812Z,8.10
2022-12-24T00:44:33.702Z,8.10
2022-12-24T00:47:04.384Z,8.10
2022-12-24T00:49:36.501Z,8.09
2022-12-24T00:52:04.810Z,8.14
2022-12-24T00:54:32.932Z,8.09
2022-12-24T00:57:02.285Z,8.07
2022-12-24T00:59:30.240Z,8.03
2022-12-24T01:01:58.553Z,8.03
2022-12-24T01:04:44.128Z,8.03
2022-12-24T01:07:12.051Z,7.96
2022-12-24T01:09:40.084Z,7.96
2022-12-24T01:12:09.498Z,7.97
2022-12-24T01:14:38.202Z,8.00
2022-12-24T01:17:06.500Z,7.96
2022-12-24T01:19:37.187Z,7.97
2022-12-24T01:22:05.300Z,7.93
2022-12-24T01:24:33.369Z,7.89
2022-12-24T01:27:01.377Z,7.89
2022-12-24T01:29:31.119Z,7.93
2022-12-24T01:31:58.992Z,7.91
2022-12-24T01:34:26.933Z,7.94
2022-12-24T01:36:54.840Z,7.90
2022-12-24T01:39:22.861Z,7.91
2022-12-24T01:42:08.556Z,7.90
2022-12-24T01:44:42.458Z,7.88
2022-12-24T01:47:12.610Z,7.83
2022-12-24T01:49:44.314Z,7.84
2022-12-24T01:52:15.909Z,7.83
2022-12-24T01:54:47.629Z,7.82
2022-12-24T01:57:19.537Z,7.82
2022-12-24T01:59:52.777Z,7.80
2022-12-24T02:02:21.579Z,7.80
2022-12-24T02:04:56.006Z,7.83
2022-12-24T02:07:24.651Z,7.77
2022-12-24T02:09:56.664Z,7.81
2022-12-24T02:12:25.525Z,7.86
2022-12-24T02:14:55.879Z,7.85
2022-12-24T02:17:30.789Z,7.87
2022-12-24T02:20:31.596Z,7.87
2022-12-24T02:23:20.967Z,7.89
2022-12-24T02:26:03.761Z,7.85
2022-12-24T02:28:57.573Z,7.87
2022-12-24T02:31:38.091Z,7.91
2022-12-24T02:34:10.343Z,7.89
2022-12-24T02:36:44.757Z,7.92
2022-12-24T02:39:16.871Z,7.93
2022-12-24T02:42:09.393Z,7.92
2022-12-24T02:44:42.261Z,7.97
2022-12-24T02:47:12.850Z,7.98
2022-12-24T02:49:44.322Z,7.98
2022-12-24T02:52:34.096Z,8.00
2022-12-24T02:55:05.782Z,8.02
2022-12-24T02:57:51.867Z,8.03
2022-12-24T03:00:21.823Z,8.08
2022-12-24T03:03:07.765Z,8.09
2022-12-24T03:05:43.619Z,8.09
2022-12-24T03:08:17.334Z,8.08
2022-12-24T03:10:56.116Z,8.16
2022-12-24T03:13:25.737Z,8.17
2022-12-24T03:15:53.957Z,8.18
2022-12-24T03:18:26.676Z,8.16
2022-12-24T03:20:59.630Z,8.19
2022-12-24T03:23:27.863Z,8.18
2022-12-24T03:25:56.346Z,8.22
2022-12-24T03:28:28.785Z,8.25
2022-12-24T03:30:57.414Z,8.20
2022-12-24T03:33:26.741Z,8.24
2022-12-24T03:35:54.716Z,8.28
2022-12-24T03:38:22.935Z,8.30
2022-12-24T03:40:50.923Z,8.29
2022-12-24T03:43:18.809Z,8.27
2022-12-24T03:45:47.123Z,8.30
2022-12-24T03:48:15.218Z,8.30
2022-12-24T03:50:44.769Z,8.33
2022-12-24T03:53:12.701Z,8.31
2022-12-24T03:55:41.355Z,8.35
2022-12-24T03:58:09.231Z,8.37
2022-12-24T04:00:37.315Z,8.38
2022-12-24T04:03:05.551Z,8.30
2022-12-24T04:05:33.531Z,8.34
2022-12-24T04:08:02.921Z,8.35
2022-12-24T04:10:30.798Z,8.39
2022-12-24T04:12:58.830Z,8.38
2022-12-24T04:15:26.712Z,8.40
2022-12-24T04:17:54.719Z,8.42
2022-12-24T04:20:22.720Z,8.38
2022-12-24T04:22:50.683Z,8.43
2022-12-24T04:25:20.083Z,8.44
2022-12-24T04:27:48.035Z,8.40
2022-12-24T04:30:16.116Z,8.43
2022-12-24T04:32:44.084Z,8.45
2022-12-24T04:35:12.049Z,8.45
2022-12-24T04:37:40.156Z,8.48
2022-12-24T04:40:09.431Z,8.44
2022-12-24T04:42:38.876Z,8.46
2022-12-24T04:45:07.929Z,8.49
2022-12-24T04:47:35.887Z,8.44
2022-12-24T04:50:03.849Z,8.48
2022-12-24T04:52:31.777Z,8.51
2022-12-24T04:55:02.183Z,8.48
2022-12-24T04:57:32.554Z,8.54
2022-12-24T05:00:01.882Z,8.52
2022-12-24T05:02:30.021Z,8.53
2022-12-24T05:04:58.200Z,8.56
2022-12-24T05:07:26.284Z,8.55
2022-12-24T05:09:54.328Z,8.55
2022-12-24T05:12:24.357Z,8.56
2022-12-24T05:14:52.242Z,8.57
2022-12-24T05:17:21.672Z,8.59
2022-12-24T05:19:49.533Z,8.57
2022-12-24T05:22:34.769Z,8.60
2022-12-24T05:25:20.328Z,8.60
2022-12-24T05:27:51.403Z,8.59
2022-12-24T05:30:19.609Z,8.59
2022-12-24T05:32:49.037Z,8.61
2022-12-24T05:35:17.174Z,8.63
2022-12-24T05:37:45.109Z,8.60
2022-12-24T05:40:13.353Z,8.64
2022-12-24T05:42:41.632Z,8.62
2022-12-24T05:45:10.789Z,8.61
2022-12-24T05:47:43.243Z,8.63
2022-12-24T05:50:13.839Z,8.66
2022-12-24T05:52:41.856Z,8.66
2022-12-24T05:55:10.692Z,8.65
2022-12-24T05:57:40.249Z,8.66
2022-12-24T06:00:09.476Z,8.68
2022-12-24T06:02:37.426Z,8.71
2022-12-24T06:05:06.029Z,8.70
2022-12-24T06:07:35.984Z,8.67
2022-12-24T06:10:04.283Z,8.70
2022-12-24T06:12:36.255Z,8.69
2022-12-24T06:15:04.326Z,8.71
2022-12-24T06:17:32.282Z,8.71
2022-12-24T06:20:00.508Z,8.70
2022-12-24T06:22:28.451Z,8.70
2022-12-24T06:24:57.898Z,8.68
2022-12-24T06:27:25.909Z,8.69
2022-12-24T06:29:53.811Z,8.66
2022-12-24T06:32:22.150Z,8.67
2022-12-24T06:34:50.045Z,8.61
2022-12-24T06:37:19.351Z,8.57
2022-12-24T06:39:47.453Z,8.52
2022-12-24T06:42:16.801Z,8.51
2022-12-24T06:44:44.810Z,8.41
2022-12-24T06:47:15.490Z,8.40
2022-12-24T06:49:43.489Z,8.40
2022-12-24T06:52:11.412Z,8.34
2022-12-24T06:54:39.338Z,8.35
2022-12-24T06:57:07.494Z,8.29
2022-12-24T06:59:36.848Z,8.29
2022-12-24T07:02:04.952Z,8.30
2022-12-24T07:04:33.080Z,8.31
2022-12-24T07:07:00.945Z,8.27
2022-12-24T07:09:28.874Z,8.27
2022-12-24T07:11:56.740Z,8.27
2022-12-24T07:14:24.650Z,8.30
2022-12-24T07:16:58.877Z,8.28
2022-12-24T07:19:27.252Z,8.30
2022-12-24T07:21:55.178Z,8.32
2022-12-24T07:24:23.068Z,8.32
2022-12-24T07:26:51.084Z,8.32
2022-12-24T07:29:19.110Z,8.33
2022-12-24T07:31:47.072Z,8.38
2022-12-24T07:34:16.777Z,8.38
2022-12-24T07:36:44.587Z,8.37
2022-12-24T07:39:12.464Z,8.41
2022-12-24T07:41:41.889Z,8.39
2022-12-24T07:44:12.519Z,8.40
2022-12-24T07:46:40.759Z,8.44
2022-12-24T07:49:08.982Z,8.47
2022-12-24T07:51:38.497Z,8.49
2022-12-24T07:54:06.464Z,8.50
2022-12-24T07:56:34.360Z,8.55
2022-12-24T07:59:02.271Z,8.56
2022-12-24T08:01:30.410Z,8.55
2022-12-24T08:03:58.535Z,8.59
2022-12-24T08:06:26.438Z,8.60
2022-12-24T08:08:55.736Z,8.59
2022-12-24T08:11:23.691Z,8.61
2022-12-24T08:13:51.618Z,8.62
2022-12-24T08:16:19.592Z,8.62
2022-12-24T08:18:47.556Z,8.59
2022-12-24T08:21:15.533Z,8.62
2022-12-24T08:23:43.501Z,8.63
2022-12-24T08:26:13.767Z,8.63
2022-12-24T08:28:42.205Z,8.63
2022-12-24T08:31:10.521Z,8.57
2022-12-24T08:33:38.544Z,8.57
2022-12-24T08:36:07.077Z,8.55
2022-12-24T08:38:35.047Z,8.55
2022-12-24T08:41:03.067Z,8.56
2022-12-24T08:43:32.683Z,8.60
2022-12-24T08:46:04.329Z,8.57
2022-12-24T08:48:32.691Z,8.58
2022-12-24T08:51:00.716Z,8.61
2022-12-24T08:53:28.799Z,8.63
2022-12-24T08:56:04.199Z,8.66
2022-12-24T08:58:34.346Z,8.69
2022-12-24T09:01:03.144Z,8.69
2022-12-24T09:03:31.213Z,8.75
2022-12-24T09:05:59.163Z,8.75
2022-12-24T09:08:27.096Z,8.74
2022-12-24T09:10:55.007Z,8.82
2022-12-24T09:13:22.955Z,8.83
2022-12-24T09:15:56.187Z,8.81
2022-12-24T09:18:24.094Z,8.82
2022-12-24T09:20:57.393Z,8.82
2022-12-24T09:23:25.525Z,8.85
2022-12-24T09:25:53.414Z,8.85
2022-12-24T09:28:21.512Z,8.83
2022-12-24T09:30:58.777Z,8.86
2022-12-24T09:33:27.397Z,8.89
2022-12-24T09:35:55.939Z,8.89
2022-12-24T09:38:24.436Z,8.97
2022-12-24T09:40:53.172Z,9.01
2022-12-24T09:43:23.776Z,8.96
2022-12-24T09:46:07.160Z,9.07
2022-12-24T09:48:38.682Z,9.09
2022-12-24T09:51:10.254Z,9.12
2022-12-24T09:53:42.297Z,9.17
2022-12-24T09:56:17.203Z,9.20
2022-12-24T09:58:49.144Z,9.22
2022-12-24T10:01:21.055Z,9.22
2022-12-24T10:03:49.459Z,9.24
2022-12-24T10:06:25.114Z,9.24
2022-12-24T10:09:09.010Z,9.24
2022-12-24T10:11:44.750Z,9.28
2022-12-24T10:14:32.501Z,9.30
2022-12-24T10:17:20.726Z,9.31
2022-12-24T10:19:53.883Z,9.32
2022-12-24T10:22:28.741Z,9.27
2022-12-24T10:25:04.914Z,9.35
2022-12-24T10:27:39.806Z,9.37
2022-12-24T10:30:17.387Z,9.38
2022-12-24T10:32:49.695Z,9.38
2022-12-24T10:35:24.398Z,9.38
2022-12-24T10:37:58.292Z,9.36
2022-12-24T10:40:35.044Z,9.31
2022-12-24T10:43:03.307Z,9.39
2022-12-24T10:45:40.606Z,9.37
2022-12-24T10:48:16.346Z,9.39
2022-12-24T10:50:55.846Z,9.34
2022-12-24T10:53:29.382Z,9.37
2022-12-24T10:56:06.806Z,9.37
2022-12-24T10:58:36.025Z,9.36
2022-12-24T11:01:05.377Z,9.34
2022-12-24T11:03:36.536Z,9.38
2022-12-24T11:06:12.737Z,9.41
2022-12-24T11:08:43.952Z,9.44
2022-12-24T11:11:15.322Z,9.42
2022-12-24T11:13:46.910Z,9.40
2022-12-24T11:16:21.244Z,9.41
2022-12-24T11:18:53.114Z,9.38
2022-12-24T11:21:25.982Z,9.40
2022-12-24T11:23:56.083Z,9.35
2022-12-24T11:26:27.036Z,9.40
2022-12-24T11:29:07.512Z,9.43
2022-12-24T11:31:37.808Z,9.44
2022-12-24T11:34:24.143Z,9.47
2022-12-24T11:36:52.614Z,9.45
2022-12-24T11:39:23.029Z,9.50
2022-12-24T11:41:52.208Z,9.54
2022-12-24T11:44:26.982Z,9.50
2022-12-24T11:46:57.815Z,9.54
2022-12-24T11:49:29.565Z,9.53
2022-12-24T11:52:21.727Z,9.54
2022-12-24T11:55:08.955Z,9.54
2022-12-24T11:57:47.990Z,9.54
2022-12-24T12:00:16.426Z,9.51
2022-12-24T12:02:49.359Z,9.54
2022-12-24T12:05:22.486Z,9.55
2022-12-24T12:07:54.495Z,9.61
2022-12-24T12:10:25.137Z,9.63
2022-12-24T12:13:00.922Z,9.70
2022-12-24T12:15:35.552Z,9.72
2022-12-24T12:18:10.764Z,9.71
2022-12-24T12:20:44.997Z,9.70
2022-12-24T12:23:12.817Z,9.71
2022-12-24T12:25:46.895Z,9.69
2022-12-24T12:28:22.295Z,9.69
2022-12-24T12:30:58.477Z,9.67
2022-12-24T12:33:32.304Z,9.70
2022-12-24T12:36:03.933Z,9.69
2022-12-24T12:38:32.015Z,9.71
2022-12-24T12:41:20.798Z,9.76
2022-12-24T12:44:10.430Z,9.82
2022-12-24T12:46:52.348Z,9.83
2022-12-24T12:49:33.779Z,9.87
2022-12-24T12:52:10.354Z,9.95
2022-12-24T12:54:52.684Z,9.99
2022-12-24T12:57:26.328Z,9.95
2022-12-24T13:00:01.492Z,10.03
2022-12-24T13:02:56.450Z,10.01
2022-12-24T13:05:47.081Z,10.02
2022-12-24T13:08:35.659Z,9.99
2022-12-24T13:11:35.558Z,10.05
2022-12-24T13:14:33.190Z,10.08
2022-12-24T13:17:23.626Z,10.11
2022-12-24T13:20:10.884Z,10.09
2022-12-24T13:22:39.154Z,10.10
2022-12-24T13:25:23.013Z,10.07
2022-12-24T13:27:50.967Z,10.00
2022-12-24T13:30:42.631Z,9.91
2022-12-24T13:33:13.002Z,9.87
2022-12-24T13:36:00.013Z,9.81
2022-12-24T13:38:49.335Z,9.79
2022-12-24T13:41:50.953Z,9.72
2022-12-24T13:44:22.753Z,9.71
2022-12-24T13:46:59.725Z,9.72
2022-12-24T13:49:31.993Z,9.71
2022-12-24T13:52:20.503Z,9.69
2022-12-24T13:55:01.839Z,9.70
2022-12-24T13:57:37.557Z,9.67
2022-12-24T14:00:24.949Z,9.66
2022-12-24T14:02:56.884Z,9.59
2022-12-24T14:05:32.113Z,9.61
2022-12-24T14:08:03.230Z,9.55
2022-12-24T14:10:34.971Z,9.63
2022-12-24T14:13:02.928Z,9.61
2022-12-24T14:16:03.974Z,9.59
2022-12-24T14:18:35.180Z,9.61
2022-12-24T14:21:04.055Z,9.65
2022-12-24T14:23:38.879Z,9.66
2022-12-24T14:26:15.191Z,9.61
2022-12-24T14:28:46.414Z,9.66
2022-12-24T14:31:19.076Z,9.63
2022-12-24T14:33:47.724Z,9.64
2022-12-24T14:36:21.591Z,9.62
2022-12-24T14:38:49.861Z,9.60
2022-12-24T14:41:31.409Z,9.64
2022-12-24T14:44:10.354Z,9.57
2022-12-24T14:46:46.288Z,9.59
2022-12-24T14:49:25.240Z,9.57
2022-12-24T14:52:03.413Z,9.53
2022-12-24T14:54:42.805Z,9.53
2022-12-24T14:57:19.813Z,9.47
2022-12-24T14:59:49.985Z,9.49
2022-12-24T15:02:26.641Z,9.45
2022-12-24T15:05:06.136Z,9.40
2022-12-24T15:07:35.649Z,9.38
2022-12-24T15:10:04.927Z,9.39
2022-12-24T15:13:02.293Z,9.34
2022-12-24T15:16:00.227Z,9.35
2022-12-24T15:18:38.642Z,9.27
2022-12-24T15:21:16.533Z,9.24
2022-12-24T15:23:48.651Z,9.28
2022-12-24T15:26:23.574Z,9.21
2022-12-24T15:28:58.277Z,9.23
2022-12-24T15:31:31.101Z,9.20
2022-12-24T15:34:01.107Z,9.17
2022-12-24T15:36:32.719Z,9.13
2022-12-24T15:39:03.895Z,9.06
2022-12-24T15:41:59.526Z,9.04
2022-12-24T15:44:28.332Z,9.05
2022-12-24T15:47:01.288Z,8.98
2022-12-24T15:49:36.898Z,9.00
2022-12-24T15:52:10.836Z,8.91
2022-12-24T15:54:39.221Z,8.90
2022-12-24T15:57:16.394Z,8.86
2022-12-24T15:59:46.630Z,8.83
2022-12-24T16:02:37.953Z,8.81
2022-12-24T16:05:34.593Z,8.86
2022-12-24T16:08:11.570Z,8.77
2022-12-24T16:10:59.466Z,8.81
2022-12-24T16:13:35.451Z,8.80
2022-12-24T16:16:06.359Z,8.74
2022-12-24T16:18:36.725Z,8.79
2022-12-24T16:21:08.039Z,8.77
2022-12-24T16:23:46.922Z,8.72
2022-12-24T16:26:15.552Z,8.66
2022-12-24T16:28:43.941Z,8.62
2022-12-24T16:31:19.073Z,8.65
2022-12-24T16:33:48.294Z,8.63
2022-12-24T16:36:18.123Z,8.57
2022-12-24T16:39:09.266Z,8.60
2022-12-24T16:41:57.393Z,8.59
2022-12-24T16:44:24.814Z,8.58
2022-12-24T16:46:53.945Z,8.65
2022-12-24T16:49:24.342Z,8.66
2022-12-24T16:51:54.474Z,8.59
2022-12-24T16:54:25.585Z,8.59
2022-12-24T16:56:53.616Z,8.59
2022-12-24T16:59:27.120Z,8.54
2022-12-24T17:01:55.458Z,8.55
2022-12-24T17:04:23.974Z,8.52
2022-12-24T17:06:56.453Z,8.46
2022-12-24T17:09:24.625Z,8.49
2022-12-24T17:11:55.378Z,8.46
2022-12-24T17:14:23.518Z,8.41
2022-12-24T17:16:52.117Z,8.42
2022-12-24T17:19:20.310Z,8.41
2022-12-24T17:21:53.357Z,8.40
2022-12-24T17:24:23.093Z,8.37
2022-12-24T17:26:51.298Z,8.30
2022-12-24T17:29:19.676Z,8.23
2022-12-24T17:31:53.689Z,8.23
2022-12-24T17:34:21.897Z,8.23
2022-12-24T17:36:50.170Z,8.16
2022-12-24T17:39:22.370Z,8.13
2022-12-24T17:41:57.398Z,8.12
2022-12-24T17:44:25.528Z,8.06
2022-12-24T17:46:53.739Z,8.06
2022-12-24T17:49:22.070Z,8.07
2022-12-24T17:51:50.177Z,7.98
2022-12-24T17:54:18.238Z,8.01
2022-12-24T17:56:46.680Z,7.99
2022-12-24T17:59:16.656Z,7.92
2022-12-24T18:01:44.794Z,7.93
2022-12-24T18:04:12.992Z,7.89
2022-12-24T18:06:47.197Z,7.87
2022-12-24T18:09:17.261Z,7.84
2022-12-24T18:11:45.508Z,7.82
2022-12-24T18:14:14.409Z,7.75
2022-12-24T18:16:44.055Z,7.77
2022-12-24T18:19:13.291Z,7.73
2022-12-24T18:21:42.292Z,7.68
2022-12-24T18:24:14.231Z,7.69
2022-12-24T18:26:42.298Z,7.58
2022-12-24T18:29:11.004Z,7.62
2022-12-24T18:31:41.989Z,7.59
2022-12-24T18:34:15.930Z,7.53
2022-12-24T18:36:48.300Z,7.57
2022-12-24T18:39:19.506Z,7.54
2022-12-24T18:41:47.965Z,7.52
2022-12-24T18:44:24.600Z,7.52
2022-12-24T18:46:57.198Z,7.53
2022-12-24T18:49:27.200Z,7.53
2022-12-24T18:51:55.496Z,7.52
2022-12-24T18:54:24.392Z,7.51
2022-12-24T18:56:55.887Z,7.45
2022-12-24T18:59:24.281Z,7.48
2022-12-24T19:01:52.706Z,7.38
2022-12-24T19:04:21.309Z,7.44
2022-12-24T19:06:54.637Z,7.46
2022-12-24T19:09:23.297Z,7.42
2022-12-24T19:11:54.570Z,7.42
2022-12-24T19:19:44.161Z,7.36
2022-12-24T19:22:14.192Z,7.38
2022-12-24T19:24:42.588Z,7.41
2022-12-24T19:27:10.858Z,7.36
2022-12-24T19:29:39.621Z,7.37
2022-12-24T19:32:08.095Z,7.39
2022-12-24T19:34:36.300Z,7.39
2022-12-24T19:37:04.807Z,7.38
2022-12-24T19:39:35.931Z,7.38
2022-12-24T19:42:09.398Z,7.34
2022-12-24T19:44:37.885Z,7.33
2022-12-24T19:47:07.198Z,7.29
2022-12-24T19:49:35.296Z,7.33
2022-12-24T19:52:03.411Z,7.28
2022-12-24T19:54:31.562Z,7.26
2022-12-24T19:57:04.250Z,7.31
2022-12-24T19:59:32.970Z,7.28
2022-12-24T20:02:01.309Z,7.26
2022-12-24T20:04:30.036Z,7.23
2022-12-24T20:07:00.679Z,7.21
2022-12-24T20:09:32.817Z,7.20
2022-12-24T20:12:03.692Z,7.17
2022-12-24T20:14:32.034Z,7.16
2022-12-24T20:17:00.493Z,7.16
2022-12-24T20:19:29.029Z,7.15
2022-12-24T20:21:57.590Z,7.14
2022-12-24T20:24:32.505Z,7.10
2022-12-24T20:27:07.016Z,7.05
2022-12-24T20:29:35.494Z,7.07
2022-12-24T20:32:07.203Z,7.02
2022-12-24T20:34:37.349Z,7.00
2022-12-24T20:37:07.663Z,7.04
2022-12-24T20:39:37.129Z,7.00
2022-12-24T20:42:08.526Z,7.03
2022-12-24T20:44:37.299Z,6.99
2022-12-24T20:47:08.326Z,7.05
2022-12-24T20:49:36.693Z,7.00
2022-12-24T20:52:05.555Z,7.04
2022-12-24T20:54:35.384Z,7.07
2022-12-24T20:57:05.285Z,7.09
2022-12-24T20:59:36.423Z,7.09
2022-12-24T21:02:07.488Z,7.11
2022-12-24T21:04:37.039Z,7.07
2022-12-24T21:07:05.493Z,7.09
2022-12-24T21:09:34.794Z,7.06
2022-12-24T21:12:23.628Z,7.11
2022-12-24T21:14:56.630Z,7.08
2022-12-24T21:17:36.073Z,7.11
2022-12-24T21:20:06.185Z,7.12
2022-12-24T21:22:34.696Z,7.04
2022-12-24T21:25:03.560Z,7.11
2022-12-24T21:28:01.105Z,7.11
2022-12-24T21:31:00.560Z,7.07
2022-12-24T21:36:47.082Z,7.09
2022-12-24T21:39:20.488Z,7.07
2022-12-24T21:41:50.967Z,7.06
2022-12-24T21:44:20.515Z,7.09
2022-12-24T21:47:14.302Z,7.11
2022-12-24T21:50:00.319Z,7.13
2022-12-24T21:52:28.919Z,7.10
2022-12-24T21:54:59.003Z,7.06
2022-12-24T21:57:44.920Z,7.11
2022-12-24T22:00:30.897Z,7.09
2022-12-24T22:03:02.992Z,7.06
2022-12-24T22:05:34.441Z,7.12
2022-12-24T22:08:23.277Z,7.07
2022-12-24T22:11:08.613Z,7.06
2022-12-24T22:13:36.843Z,7.04
2022-12-24T22:16:07.516Z,7.04
2022-12-24T22:18:37.029Z,7.04
2022-12-24T22:21:06.876Z,7.05
2022-12-24T22:23:42.234Z,7.10
2022-12-24T22:26:14.869Z,7.09
2022-12-24T22:28:43.703Z,7.10
2022-12-24T22:31:19.107Z,7.07
2022-12-24T22:33:50.293Z,7.05
2022-12-24T22:36:19.956Z,7.04
2022-12-24T22:38:48.256Z,7.06
2022-12-24T22:41:16.999Z,7.03
2022-12-24T22:43:50.294Z,7.06
2022-12-24T22:46:19.221Z,7.06
2022-12-24T22:48:48.798Z,7.01
2022-12-24T22:51:19.316Z,7.07
2022-12-24T22:53:48.283Z,7.05
2022-12-24T22:56:18.579Z,7.02
2022-12-24T22:58:46.982Z,7.03
2022-12-24T23:01:15.796Z,7.09
2022-12-24T23:03:44.323Z,7.03
2022-12-24T23:06:16.170Z,7.08
2022-12-24T23:08:44.563Z,7.14
2022-12-24T23:11:14.933Z,7.13
2022-12-24T23:14:02.763Z,7.13
2022-12-24T23:16:31.984Z,7.22
2022-12-24T23:19:04.561Z,7.18
2022-12-24T23:21:35.110Z,7.23
2022-12-24T23:24:04.414Z,7.29
2022-12-24T23:26:38.595Z,7.33
2022-12-24T23:29:07.891Z,7.27
2022-12-24T23:31:43.358Z,7.35
2022-12-24T23:34:11.920Z,7.36
2022-12-24T23:36:41.969Z,7.37
2022-12-24T23:39:10.468Z,7.34
2022-12-24T23:41:39.239Z,7.40
2022-12-24T23:44:08.274Z,7.39
2022-12-24T23:46:37.190Z,7.45
2022-12-24T23:49:05.983Z,7.48
2022-12-24T23:51:34.252Z,7.42
2022-12-24T23:54:04.446Z,7.49
2022-12-24T23:56:33.556Z,7.47
2022-12-24T23:59:04.490Z,7.44
